N610DS PHOG-PHNL
Flight info
| Callsign | N610DS |
|---|---|
| Flight time | N/A |
| Altitude | 12000 |
| Route | OGG LNY SHLAE1 |
| Aircraft | B60T/L-SDFGRY/C |
Departure
| Time | 2026-04-17 01:00 |
|---|---|
| Airport | Kahului International Airport (PHOG) |
Arrival
| Time | N/A |
|---|---|
| Airport | Daniel K. Inouye International Airport (PHNL) |
| Time | Latitude | Longitude | Altitude | Speed | Heading |
|---|---|---|---|---|---|
| 2026-04-17 00:30 | 20.89815 | -156.42714 | 39 ft | 0 kts | 35° |
| 2026-04-17 00:55 | 20.89822 | -156.42709 | 39 ft | 7 kts | 35° |
| 2026-04-17 00:55 | 20.89855 | -156.42734 | 39 ft | 11 kts | 302° |
| 2026-04-17 00:55 | 20.89847 | -156.42792 | 39 ft | 13 kts | 216° |
| 2026-04-17 00:55 | 20.89734 | -156.42878 | 39 ft | 20 kts | 216° |
| 2026-04-17 00:56 | 20.89658 | -156.42962 | 40 ft | 16 kts | 298° |
| 2026-04-17 00:56 | 20.89737 | -156.43081 | 39 ft | 23 kts | 306° |
| 2026-04-17 00:56 | 20.89755 | -156.43168 | 39 ft | 16 kts | 216° |
| 2026-04-17 00:56 | 20.89635 | -156.43256 | 39 ft | 18 kts | 216° |
| 2026-04-17 00:57 | 20.89533 | -156.43333 | 39 ft | 19 kts | 213° |
| 2026-04-17 00:57 | 20.89432 | -156.43408 | 39 ft | 14 kts | 215° |
| 2026-04-17 00:57 | 20.89370 | -156.43454 | 39 ft | 16 kts | 215° |
| 2026-04-17 00:57 | 20.89234 | -156.43556 | 39 ft | 27 kts | 216° |
| 2026-04-17 00:58 | 20.89094 | -156.43660 | 39 ft | 23 kts | 216° |
| 2026-04-17 00:58 | 20.88976 | -156.43750 | 39 ft | 17 kts | 216° |
| 2026-04-17 00:58 | 20.88876 | -156.43832 | 39 ft | 9 kts | 282° |
| 2026-04-17 00:58 | 20.88890 | -156.43831 | 39 ft | 0 kts | 52° |
| 2026-04-17 00:59 | 20.88963 | -156.43752 | 39 ft | 17 kts | 37° |
| 2026-04-17 00:59 | 20.88963 | -156.43668 | 39 ft | 10 kts | 124° |
| 2026-04-17 01:00 | 20.88952 | -156.43607 | 39 ft | 0 kts | 36° |
| 2026-04-17 01:00 | 20.89134 | -156.43471 | 39 ft | 78 kts | 35° |
| 2026-04-17 01:00 | 20.89734 | -156.43014 | 314 ft | 119 kts | 36° |
| 2026-04-17 01:00 | 20.90434 | -156.42441 | 956 ft | 137 kts | 38° |
| 2026-04-17 01:01 | 20.91137 | -156.41778 | 1887 ft | 135 kts | 47° |
| 2026-04-17 01:01 | 20.91508 | -156.40799 | 2560 ft | 152 kts | 89° |
| 2026-04-17 01:01 | 20.91112 | -156.39805 | 3466 ft | 150 kts | 136° |
| 2026-04-17 01:01 | 20.90090 | -156.39445 | 4122 ft | 166 kts | 182° |
| 2026-04-17 01:02 | 20.89057 | -156.40010 | 4783 ft | 174 kts | 232° |
| 2026-04-17 01:02 | 20.88538 | -156.41147 | 5567 ft | 174 kts | 247° |
| 2026-04-17 01:02 | 20.88129 | -156.42360 | 6329 ft | 171 kts | 252° |
| 2026-04-17 01:02 | 20.87788 | -156.43571 | 7083 ft | 171 kts | 246° |
| 2026-04-17 01:03 | 20.86923 | -156.44408 | 7626 ft | 179 kts | 197° |
| 2026-04-17 01:03 | 20.85732 | -156.44872 | 8155 ft | 184 kts | 206° |
| 2026-04-17 01:03 | 20.84557 | -156.45372 | 8830 ft | 182 kts | 193° |
| 2026-04-17 01:03 | 20.83356 | -156.45806 | 9470 ft | 183 kts | 202° |
| 2026-04-17 01:04 | 20.82228 | -156.46384 | 10035 ft | 178 kts | 207° |
| 2026-04-17 01:04 | 20.81127 | -156.46977 | 10499 ft | 177 kts | 206° |
| 2026-04-17 01:04 | 20.80022 | -156.47561 | 10935 ft | 178 kts | 207° |
| 2026-04-17 01:04 | 20.78909 | -156.48144 | 11385 ft | 178 kts | 207° |
| 2026-04-17 01:05 | 20.77796 | -156.48728 | 11834 ft | 178 kts | 209° |
| 2026-04-17 01:05 | 20.76652 | -156.49322 | 12015 ft | 191 kts | 209° |
| 2026-04-17 01:05 | 20.75421 | -156.49970 | 12023 ft | 202 kts | 209° |
| 2026-04-17 01:05 | 20.74143 | -156.50638 | 12019 ft | 207 kts | 208° |
| 2026-04-17 01:06 | 20.72841 | -156.51312 | 12021 ft | 209 kts | 208° |
| 2026-04-17 01:06 | 20.71529 | -156.51998 | 12018 ft | 210 kts | 208° |
| 2026-04-17 01:06 | 20.70274 | -156.52780 | 12017 ft | 209 kts | 223° |
| 2026-04-17 01:06 | 20.69361 | -156.53971 | 12027 ft | 207 kts | 242° |
| 2026-04-17 01:07 | 20.68895 | -156.55414 | 12020 ft | 207 kts | 262° |
| 2026-04-17 01:07 | 20.68929 | -156.56942 | 12020 ft | 207 kts | 280° |
| 2026-04-17 01:07 | 20.69224 | -156.58448 | 12018 ft | 207 kts | 281° |
| 2026-04-17 01:07 | 20.69506 | -156.59960 | 12019 ft | 208 kts | 280° |
| 2026-04-17 01:08 | 20.69790 | -156.61471 | 12019 ft | 207 kts | 281° |
| 2026-04-17 01:08 | 20.70077 | -156.62981 | 12021 ft | 208 kts | 281° |
| 2026-04-17 01:08 | 20.70363 | -156.64488 | 12020 ft | 207 kts | 281° |
| 2026-04-17 01:08 | 20.70648 | -156.65996 | 12022 ft | 207 kts | 280° |
| 2026-04-17 01:09 | 20.70933 | -156.67503 | 12023 ft | 207 kts | 281° |
| 2026-04-17 01:09 | 20.71217 | -156.69009 | 12021 ft | 207 kts | 280° |
| 2026-04-17 01:09 | 20.71406 | -156.70007 | 12020 ft | 207 kts | 281° |